createdAt,value
2022-09-12T00:00:14.419Z,9.681230
2022-09-12T00:01:14.480Z,9.681110
2022-09-12T00:02:14.437Z,9.681258
2022-09-12T00:03:14.395Z,9.681000
2022-09-12T00:04:14.391Z,9.682117
2022-09-12T00:05:14.385Z,9.682262
2022-09-12T00:06:14.365Z,9.682262
2022-09-12T00:07:14.364Z,9.681163
2022-09-12T00:08:14.351Z,9.681019
2022-09-12T00:09:14.340Z,9.681279
2022-09-12T00:10:14.347Z,9.681084
2022-09-12T00:11:14.347Z,9.681088
2022-09-12T00:12:14.343Z,9.680821
2022-09-12T00:13:14.319Z,9.680408
2022-09-12T00:14:14.309Z,9.680224
2022-09-12T00:15:14.307Z,9.680384
2022-09-12T00:16:14.364Z,9.680662
2022-09-12T00:17:14.306Z,9.680823
2022-09-12T00:18:14.282Z,9.680867
2022-09-12T00:19:14.263Z,9.680967
2022-09-12T00:20:14.251Z,9.681348
2022-09-12T00:21:14.242Z,9.681651
2022-09-12T00:22:14.247Z,9.681060
2022-09-12T00:23:14.249Z,9.681138
2022-09-12T00:24:14.239Z,9.681583
2022-09-12T00:25:14.221Z,9.681940
2022-09-12T00:26:14.216Z,9.681442
2022-09-12T00:27:14.196Z,9.681839
2022-09-12T00:28:14.197Z,9.681361
2022-09-12T00:29:14.200Z,9.681201
2022-09-12T00:30:14.181Z,9.681201
2022-09-12T00:31:14.236Z,9.681201
2022-09-12T00:32:14.161Z,9.681201
2022-09-12T00:33:14.155Z,9.681201
2022-09-12T00:34:14.142Z,9.681201
2022-09-12T00:35:14.218Z,9.681201
2022-09-12T00:36:14.131Z,9.681201
2022-09-12T00:37:14.124Z,9.681201
2022-09-12T00:38:14.110Z,9.681201
2022-09-12T00:39:14.112Z,9.681201
2022-09-12T00:40:14.138Z,9.680602
2022-09-12T00:41:14.118Z,9.680994
2022-09-12T00:42:14.085Z,9.681331
2022-09-12T00:43:14.066Z,9.682693
2022-09-12T00:44:14.057Z,9.682688
2022-09-12T00:45:14.048Z,9.682418
2022-09-12T00:46:14.044Z,9.681782
2022-09-12T00:47:14.062Z,9.681202
2022-09-12T00:48:14.036Z,9.681405
2022-09-12T00:49:14.018Z,9.681701
2022-09-12T00:50:14.018Z,9.681324
2022-09-12T00:51:14.005Z,9.680826
2022-09-12T00:52:13.997Z,9.680511
2022-09-12T00:53:14.005Z,9.680095
2022-09-12T00:54:13.987Z,9.679291
2022-09-12T00:55:13.977Z,9.679363
2022-09-12T00:56:13.973Z,9.680175
2022-09-12T00:57:13.964Z,9.681122
2022-09-12T00:58:13.954Z,9.681486
2022-09-12T00:59:13.960Z,9.680957
2022-09-12T01:00:13.951Z,9.680668
2022-09-12T01:01:14.053Z,9.680793
2022-09-12T01:02:13.975Z,9.681239
2022-09-12T01:03:13.909Z,9.681145
2022-09-12T01:04:13.931Z,9.681034
2022-09-12T01:05:13.900Z,9.681083
2022-09-12T01:06:13.889Z,9.681065
2022-09-12T01:07:13.884Z,9.681077
2022-09-12T01:08:13.872Z,9.681071
2022-09-12T01:09:13.862Z,9.681016
2022-09-12T01:10:13.885Z,9.680867
2022-09-12T01:11:13.849Z,9.681246
2022-09-12T01:12:13.847Z,9.681110
2022-09-12T01:13:13.832Z,9.680997
2022-09-12T01:14:13.827Z,9.681093
2022-09-12T01:15:13.826Z,9.681098
2022-09-12T01:16:13.854Z,9.680980
2022-09-12T01:17:13.791Z,9.681058
2022-09-12T01:18:13.804Z,9.681296
2022-09-12T01:19:13.798Z,9.681312
2022-09-12T01:20:13.785Z,9.681532
2022-09-12T01:21:13.774Z,9.681239
2022-09-12T01:22:13.786Z,9.681285
2022-09-12T01:23:13.751Z,9.681153
2022-09-12T01:24:13.744Z,9.680904
2022-09-12T01:25:13.739Z,9.681115
2022-09-12T01:26:13.727Z,9.681196
2022-09-12T01:27:13.722Z,9.681126
2022-09-12T01:28:13.738Z,9.681016
2022-09-12T01:29:13.701Z,9.681049
2022-09-12T01:30:13.702Z,9.681099
2022-09-12T01:31:13.706Z,9.681112
2022-09-12T01:32:13.710Z,9.680965
2022-09-12T01:33:13.669Z,9.680903
2022-09-12T01:34:13.665Z,9.681026
2022-09-12T01:35:13.658Z,9.681093
2022-09-12T01:36:13.650Z,9.681179
2022-09-12T01:37:13.666Z,9.681180
2022-09-12T01:38:13.642Z,9.680939
2022-09-12T01:39:13.632Z,9.681254
2022-09-12T01:40:13.652Z,9.681178
2022-09-12T01:41:13.617Z,9.681063
2022-09-12T01:42:13.607Z,9.681085
2022-09-12T01:43:13.614Z,9.680923
2022-09-12T01:44:13.620Z,9.681026
2022-09-12T01:45:13.591Z,9.681102
2022-09-12T01:46:13.586Z,9.681090
2022-09-12T01:47:13.569Z,9.681138
2022-09-12T01:48:13.569Z,9.680966
2022-09-12T01:49:13.556Z,9.681153
2022-09-12T01:50:13.571Z,9.681191
2022-09-12T01:51:13.540Z,9.681072
2022-09-12T01:52:13.537Z,9.680902
2022-09-12T01:53:13.547Z,9.681029
2022-09-12T01:54:13.519Z,9.681232
2022-09-12T01:55:13.508Z,9.681149
2022-09-12T01:56:13.501Z,9.681111
2022-09-12T01:57:13.490Z,9.681314
2022-09-12T01:58:13.488Z,9.681215
2022-09-12T01:59:13.490Z,9.681100
2022-09-12T02:00:13.470Z,9.681204
2022-09-12T02:01:13.487Z,9.681374
2022-09-12T02:02:13.502Z,9.681352
2022-09-12T02:03:13.448Z,9.680976
2022-09-12T02:04:13.444Z,9.681084
2022-09-12T02:05:13.439Z,9.681004
2022-09-12T02:06:13.439Z,9.681080
2022-09-12T02:07:13.436Z,9.680965
2022-09-12T02:08:13.411Z,9.681128
2022-09-12T02:09:13.390Z,9.681284
2022-09-12T02:10:13.393Z,9.681292
2022-09-12T02:11:13.389Z,9.681114
2022-09-12T02:12:13.399Z,9.681160
2022-09-12T02:13:13.364Z,9.681032
2022-09-12T02:14:13.365Z,9.681082
2022-09-12T02:15:13.374Z,9.681350
2022-09-12T02:16:13.410Z,9.681236
2022-09-12T02:17:13.337Z,9.681092
2022-09-12T02:18:13.331Z,9.681322
2022-09-12T02:19:13.318Z,9.681141
2022-09-12T02:20:21.364Z,9.681363
2022-09-12T02:21:14.305Z,9.681280
2022-09-12T02:22:13.295Z,9.681154
2022-09-12T02:23:13.291Z,9.681109
2022-09-12T02:24:13.301Z,9.681131
2022-09-12T02:25:13.269Z,9.681293
2022-09-12T02:26:13.262Z,9.681117
2022-09-12T02:27:13.255Z,9.681375
2022-09-12T02:28:13.249Z,9.681391
2022-09-12T02:29:13.259Z,9.681467
2022-09-12T02:30:13.234Z,9.681510
2022-09-12T02:31:13.240Z,9.681414
2022-09-12T02:32:13.215Z,9.681214
2022-09-12T02:33:13.240Z,9.681214
2022-09-12T02:34:13.210Z,9.680869
2022-09-12T02:35:13.195Z,9.681052
2022-09-12T02:36:13.189Z,9.680822
2022-09-12T02:37:13.202Z,9.680907
2022-09-12T02:38:13.172Z,9.681330
2022-09-12T02:39:13.169Z,9.681291
2022-09-12T02:40:13.209Z,9.681286
2022-09-12T02:41:13.149Z,9.681181
2022-09-12T02:42:13.146Z,9.681127
2022-09-12T02:43:13.148Z,9.681297
2022-09-12T02:44:13.122Z,9.681718
2022-09-12T02:45:13.116Z,9.681503
2022-09-12T02:46:13.102Z,9.681437
2022-09-12T02:47:13.091Z,9.681044
2022-09-12T02:48:13.631Z,9.681145
2022-09-12T02:49:13.087Z,9.681318
2022-09-12T02:50:13.084Z,9.681257
2022-09-12T02:51:13.071Z,9.681215
2022-09-12T02:52:13.090Z,9.681160
2022-09-12T02:53:13.052Z,9.680464
2022-09-12T02:54:13.041Z,9.681725
2022-09-12T02:55:13.037Z,9.681954
2022-09-12T02:56:13.030Z,9.681273
2022-09-12T02:57:13.029Z,9.681006
2022-09-12T02:58:13.033Z,9.681351
2022-09-12T02:59:13.024Z,9.680995
2022-09-12T03:00:13.024Z,9.680845
2022-09-12T03:01:12.999Z,9.680260
2022-09-12T03:02:13.042Z,9.679524
2022-09-12T03:03:12.983Z,9.679099
2022-09-12T03:04:12.974Z,9.680017
2022-09-12T03:05:12.998Z,9.680211
2022-09-12T03:06:12.969Z,9.680360
2022-09-12T03:07:12.956Z,9.680474
2022-09-12T03:08:12.956Z,9.680665
2022-09-12T03:09:12.935Z,9.680634
2022-09-12T03:10:12.931Z,9.680534
2022-09-12T03:11:12.943Z,9.680850
2022-09-12T03:12:12.919Z,9.681005
2022-09-12T03:13:12.931Z,9.681573
2022-09-12T03:14:12.908Z,9.681991
2022-09-12T03:15:12.899Z,9.681178
2022-09-12T03:16:12.970Z,9.681529
2022-09-12T03:17:12.880Z,9.681262
2022-09-12T03:18:12.871Z,9.681314
2022-09-12T03:19:12.869Z,9.681230
2022-09-12T03:20:12.883Z,9.680544
2022-09-12T03:21:12.849Z,9.680498
2022-09-12T03:22:12.846Z,9.680451
2022-09-12T03:23:12.836Z,9.680787
2022-09-12T03:24:12.858Z,9.680620
2022-09-12T03:25:12.816Z,9.680335
2022-09-12T03:26:12.811Z,9.679502
2022-09-12T03:27:12.809Z,9.680664
2022-09-12T03:28:12.807Z,9.680958
2022-09-12T03:29:12.808Z,9.681388
2022-09-12T03:30:19.814Z,9.680880
2022-09-12T03:31:12.773Z,9.680880
2022-09-12T03:32:12.767Z,9.680880
2022-09-12T03:33:12.768Z,9.680095
2022-09-12T03:34:12.785Z,9.680954
2022-09-12T03:35:12.743Z,9.681143
2022-09-12T03:36:12.743Z,9.680940
2022-09-12T03:37:12.730Z,9.680940
2022-09-12T03:38:12.728Z,9.680940
2022-09-12T03:39:12.714Z,9.680940
2022-09-12T03:40:12.778Z,9.680940
2022-09-12T03:41:12.719Z,9.680940
2022-09-12T03:42:12.698Z,9.680940
2022-09-12T03:43:12.696Z,9.680940
2022-09-12T03:44:12.671Z,9.680940
2022-09-12T03:45:12.669Z,9.680940
2022-09-12T03:46:12.661Z,9.680940
2022-09-12T03:47:12.670Z,9.680940
2022-09-12T03:48:12.648Z,9.681432
2022-09-12T03:49:12.657Z,9.680789
2022-09-12T03:50:12.635Z,9.680248
2022-09-12T03:51:12.647Z,9.680838
2022-09-12T03:52:12.624Z,9.680956
2022-09-12T03:53:16.930Z,9.681732
2022-09-12T03:54:12.604Z,9.681738
2022-09-12T03:55:12.596Z,9.680829
2022-09-12T03:56:12.592Z,9.681375
2022-09-12T03:57:12.601Z,9.681922
2022-09-12T03:58:12.573Z,9.681939
2022-09-12T03:59:12.561Z,9.681825
2022-09-12T04:00:16.395Z,9.681288
2022-09-12T04:01:12.678Z,9.681288
2022-09-12T04:02:12.586Z,9.681082
2022-09-12T04:03:12.531Z,9.681114
2022-09-12T04:04:12.525Z,9.681211
2022-09-12T04:05:12.544Z,9.681062
2022-09-12T04:06:12.511Z,9.680836
2022-09-12T04:07:12.498Z,9.680804
2022-09-12T04:08:12.502Z,9.681046
2022-09-12T04:09:12.489Z,9.681105
2022-09-12T04:10:12.483Z,9.681078
2022-09-12T04:11:12.483Z,9.680964
2022-09-12T04:12:12.470Z,9.680803
2022-09-12T04:13:12.458Z,9.681074
2022-09-12T04:14:12.455Z,9.681295
2022-09-12T04:15:12.456Z,9.681194
2022-09-12T04:16:12.520Z,9.681040
2022-09-12T04:17:12.451Z,9.681151
2022-09-12T04:18:12.424Z,9.681314
2022-09-12T04:19:12.418Z,9.681352
2022-09-12T04:20:12.409Z,9.681127
2022-09-12T04:21:12.395Z,9.681224
2022-09-12T04:22:12.408Z,9.681120
2022-09-12T04:23:12.386Z,9.681235
2022-09-12T04:24:12.395Z,9.681212
2022-09-12T04:25:12.364Z,9.681139
2022-09-12T04:26:12.358Z,9.681009
2022-09-12T04:27:12.383Z,9.680777
2022-09-12T04:28:12.349Z,9.680829
2022-09-12T04:29:12.342Z,9.680880
2022-09-12T04:30:12.342Z,9.680820
2022-09-12T04:31:12.327Z,9.680841
2022-09-12T04:32:12.316Z,9.680972
2022-09-12T04:33:12.333Z,9.680825
2022-09-12T04:34:12.305Z,9.681107
2022-09-12T04:35:12.292Z,9.681031
2022-09-12T04:36:12.315Z,9.680892
2022-09-12T04:37:12.283Z,9.680858
2022-09-12T04:38:12.269Z,9.680962
2022-09-12T04:39:12.258Z,9.680716
2022-09-12T04:40:12.279Z,9.680849
2022-09-12T04:41:12.253Z,9.680960
2022-09-12T04:42:12.266Z,9.680783
2022-09-12T04:43:14.486Z,9.680687
2022-09-12T04:44:12.239Z,9.681022
2022-09-12T04:45:12.223Z,9.680808
2022-09-12T04:46:12.283Z,9.680635
2022-09-12T04:47:12.215Z,9.680493
2022-09-12T04:48:12.199Z,9.681046
2022-09-12T04:49:12.190Z,9.681018
2022-09-12T04:50:12.179Z,9.681319
2022-09-12T04:51:12.175Z,9.681090
2022-09-12T04:52:12.182Z,9.681255
2022-09-12T04:53:12.165Z,9.681334
2022-09-12T04:54:12.165Z,9.680900
2022-09-12T04:55:12.142Z,9.680599
2022-09-12T04:56:12.142Z,9.681230
2022-09-12T04:57:12.154Z,9.681928
2022-09-12T04:58:12.125Z,9.681928
2022-09-12T04:59:12.123Z,9.680796
2022-09-12T05:00:12.109Z,9.680565
2022-09-12T05:01:12.161Z,9.680778
2022-09-12T05:02:12.142Z,9.680793
2022-09-12T05:03:12.080Z,9.681062
2022-09-12T05:04:12.080Z,9.681087
2022-09-12T05:05:12.071Z,9.681158
2022-09-12T05:06:12.067Z,9.681118
2022-09-12T05:07:12.072Z,9.680952
2022-09-12T05:08:12.041Z,9.680888
2022-09-12T05:09:12.038Z,9.680784
2022-09-12T05:10:12.021Z,9.681073
2022-09-12T05:11:12.037Z,9.680780
2022-09-12T05:12:12.028Z,9.681310
2022-09-12T05:13:12.002Z,9.681319
2022-09-12T05:14:12.195Z,9.680998
2022-09-12T05:15:11.987Z,9.680862
2022-09-12T05:16:12.023Z,9.681070
2022-09-12T05:17:11.962Z,9.681121
2022-09-12T05:18:11.958Z,9.680971
2022-09-12T05:19:11.941Z,9.681334
2022-09-12T05:20:11.964Z,9.681531
2022-09-12T05:21:11.930Z,9.681783
2022-09-12T05:22:11.932Z,9.681190
2022-09-12T05:23:11.911Z,9.681215
2022-09-12T05:24:11.901Z,9.680852
2022-09-12T05:25:11.900Z,9.681211
2022-09-12T05:26:11.928Z,9.681107
2022-09-12T05:27:11.903Z,9.681186
2022-09-12T05:28:11.881Z,9.681043
2022-09-12T05:29:11.866Z,9.680923
2022-09-12T05:30:11.878Z,9.681018
2022-09-12T05:31:11.847Z,9.681064
2022-09-12T05:32:11.977Z,9.680911
2022-09-12T05:33:11.846Z,9.681414
2022-09-12T05:34:11.839Z,9.681471
2022-09-12T05:35:11.833Z,9.681192
2022-09-12T05:36:11.836Z,9.681052
2022-09-12T05:37:11.798Z,9.681232
2022-09-12T05:38:11.793Z,9.681084
2022-09-12T05:39:11.828Z,9.680869
2022-09-12T05:40:11.830Z,9.680921
2022-09-12T05:41:16.951Z,9.680939
2022-09-12T05:42:12.766Z,9.680934
2022-09-12T05:43:11.783Z,9.681192
2022-09-12T05:44:11.753Z,9.680942
2022-09-12T05:45:11.739Z,9.680974
2022-09-12T05:46:11.755Z,9.681150
2022-09-12T05:47:11.715Z,9.680931
2022-09-12T05:48:11.717Z,9.680978
2022-09-12T05:49:11.722Z,9.681106
2022-09-12T05:50:11.710Z,9.681139
2022-09-12T05:51:11.679Z,9.681206
2022-09-12T05:52:11.704Z,9.681150
2022-09-12T05:53:11.672Z,9.681026
2022-09-12T05:54:11.663Z,9.681005
2022-09-12T05:55:11.681Z,9.681124
2022-09-12T05:56:11.660Z,9.680852
2022-09-12T05:57:11.641Z,9.681040
2022-09-12T05:58:11.646Z,9.681185
2022-09-12T05:59:11.618Z,9.680836
2022-09-12T06:00:11.625Z,9.680927
2022-09-12T06:01:11.690Z,9.681130
2022-09-12T06:02:11.658Z,9.681193
2022-09-12T06:03:11.598Z,9.680979
2022-09-12T06:04:11.588Z,9.680785
2022-09-12T06:05:11.613Z,9.680994
2022-09-12T06:06:11.576Z,9.681066
2022-09-12T06:07:11.580Z,9.681664
2022-09-12T06:08:11.657Z,9.681248
2022-09-12T06:09:11.626Z,9.680905
2022-09-12T06:10:11.617Z,9.681248
2022-09-12T06:11:11.621Z,9.681090
2022-09-12T06:12:11.580Z,9.681094
2022-09-12T06:13:11.560Z,9.681020
2022-09-12T06:14:11.575Z,9.681039
2022-09-12T06:15:11.529Z,9.680904
2022-09-12T06:16:11.548Z,9.680999
2022-09-12T06:17:11.516Z,9.680884
2022-09-12T06:18:11.508Z,9.680739
2022-09-12T06:19:11.509Z,9.680796
2022-09-12T06:20:11.501Z,9.681078
2022-09-12T06:21:11.500Z,9.680980
2022-09-12T06:22:11.476Z,9.680817
2022-09-12T06:23:11.456Z,9.681062
2022-09-12T06:24:11.485Z,9.680788
2022-09-12T06:25:11.484Z,9.680413
2022-09-12T06:26:11.445Z,9.679787
2022-09-12T06:27:11.437Z,9.679637
2022-09-12T06:28:11.431Z,9.679637
2022-09-12T06:29:11.422Z,9.679919
2022-09-12T06:30:11.413Z,9.679575
2022-09-12T06:31:11.482Z,9.679179
2022-09-12T06:32:11.398Z,9.679364
2022-09-12T06:33:11.384Z,9.679633
2022-09-12T06:34:11.404Z,9.679676
2022-09-12T06:35:11.375Z,9.679975
2022-09-12T06:36:12.550Z,9.679869
2022-09-12T06:37:11.382Z,9.679812
2022-09-12T06:38:11.363Z,9.680015
2022-09-12T06:39:11.346Z,9.680473
2022-09-12T06:40:11.388Z,9.680638
2022-09-12T06:41:11.352Z,9.680638
2022-09-12T06:42:11.328Z,9.680638
2022-09-12T06:43:11.341Z,9.680638
2022-09-12T06:44:11.343Z,9.680638
2022-09-12T06:45:11.323Z,9.680638
2022-09-12T06:46:11.365Z,9.680638
2022-09-12T06:47:11.299Z,9.680638
2022-09-12T06:48:11.290Z,9.680638
2022-09-12T06:49:11.301Z,9.680638
2022-09-12T06:50:11.309Z,9.680548
2022-09-12T06:51:11.281Z,9.680288
2022-09-12T06:52:11.270Z,9.680288
2022-09-12T06:53:11.287Z,9.680288
2022-09-12T06:54:11.255Z,9.680472
2022-09-12T06:55:11.242Z,9.680476
2022-09-12T06:56:11.235Z,9.680728
2022-09-12T06:57:11.226Z,9.680835
2022-09-12T06:58:11.227Z,9.680860
2022-09-12T06:59:11.244Z,9.680661
2022-09-12T07:00:11.203Z,9.680661
2022-09-12T07:01:11.242Z,9.680644
2022-09-12T07:02:11.235Z,9.680330
2022-09-12T07:03:11.187Z,9.680459
2022-09-12T07:04:11.188Z,9.680459
2022-09-12T07:05:11.179Z,9.680999
2022-09-12T07:06:11.170Z,9.680999
2022-09-12T07:07:11.157Z,9.681145
2022-09-12T07:08:11.152Z,9.681039
2022-09-12T07:09:11.160Z,9.680840
2022-09-12T07:10:11.144Z,9.680840
2022-09-12T07:11:11.123Z,9.680840
2022-09-12T07:12:11.139Z,9.680831
2022-09-12T07:13:11.110Z,9.681022
2022-09-12T07:14:11.098Z,9.680945
2022-09-12T07:15:11.107Z,9.680875
2022-09-12T07:16:12.295Z,9.680776
2022-09-12T07:17:11.172Z,9.681224
2022-09-12T07:18:11.072Z,9.681612
2022-09-12T07:19:11.074Z,9.681339
2022-09-12T07:20:11.074Z,9.681368
2022-09-12T07:21:11.046Z,9.681318
2022-09-12T07:22:11.058Z,9.681055
2022-09-12T07:23:11.033Z,9.681144
2022-09-12T07:24:11.204Z,9.681350
2022-09-12T07:25:11.029Z,9.681194
2022-09-12T07:26:11.011Z,9.681155
2022-09-12T07:27:11.017Z,9.680676
2022-09-12T07:28:10.999Z,9.680837
2022-09-12T07:29:36.602Z,9.680964
2022-09-12T07:30:11.987Z,9.681362
2022-09-12T07:31:11.034Z,9.681146
2022-09-12T07:32:10.991Z,9.681235
2022-09-12T07:33:10.951Z,9.681215
2022-09-12T07:34:10.952Z,9.681080
2022-09-12T07:35:10.953Z,9.681243
2022-09-12T07:36:10.945Z,9.681490
2022-09-12T07:37:10.950Z,9.681153
2022-09-12T07:38:11.038Z,9.681093
2022-09-12T07:39:10.906Z,9.681108
2022-09-12T07:40:10.967Z,9.681043
2022-09-12T07:41:10.896Z,9.681237
2022-09-12T07:42:10.884Z,9.680964
2022-09-12T07:43:10.880Z,9.681333
2022-09-12T07:44:10.894Z,9.681609
2022-09-12T07:45:10.869Z,9.681371
2022-09-12T07:46:10.880Z,9.680979
2022-09-12T07:47:10.848Z,9.680628
2022-09-12T07:48:10.840Z,9.681149
2022-09-12T07:49:10.827Z,9.681952
2022-09-12T07:50:10.833Z,9.681047
2022-09-12T07:51:10.827Z,9.681211
2022-09-12T07:52:10.802Z,9.681093
2022-09-12T07:53:10.797Z,9.680749
2022-09-12T07:54:10.793Z,9.680869
2022-09-12T07:55:10.799Z,9.681282
2022-09-12T07:56:10.785Z,9.681358
2022-09-12T07:57:10.754Z,9.681469
2022-09-12T07:58:10.777Z,9.681307
2022-09-12T07:59:10.766Z,9.680994
2022-09-12T08:00:10.735Z,9.680916
2022-09-12T08:01:10.763Z,9.681837
2022-09-12T08:02:16.071Z,9.681129
2022-09-12T08:03:11.733Z,9.680899
2022-09-12T08:04:10.731Z,9.681705
2022-09-12T08:05:10.705Z,9.681158
2022-09-12T08:06:10.695Z,9.681048
2022-09-12T08:07:10.695Z,9.680875
2022-09-12T08:08:10.691Z,9.681010
2022-09-12T08:09:10.678Z,9.680947
2022-09-12T08:10:10.683Z,9.681114
2022-09-12T08:11:10.658Z,9.681759
2022-09-12T08:12:10.683Z,9.680470
2022-09-12T08:13:10.960Z,9.681552
2022-09-12T08:14:10.636Z,9.680800
2022-09-12T08:15:10.621Z,9.680881
2022-09-12T08:16:10.667Z,9.680940
2022-09-12T08:17:10.616Z,9.680955
2022-09-12T08:18:10.646Z,9.680922
2022-09-12T08:19:10.591Z,9.681093
2022-09-12T08:20:10.598Z,9.681191
2022-09-12T08:21:10.582Z,9.681314
2022-09-12T08:22:10.570Z,9.681371
2022-09-12T08:23:10.559Z,9.681471
2022-09-12T08:24:10.577Z,9.681864
2022-09-12T08:25:10.536Z,9.682014
2022-09-12T08:26:10.566Z,9.680211
2022-09-12T08:27:10.532Z,9.678905
2022-09-12T08:28:10.514Z,9.681337
2022-09-12T08:29:10.530Z,9.681644
2022-09-12T08:30:10.506Z,9.681285
2022-09-12T08:31:10.547Z,9.681699
2022-09-12T08:32:10.529Z,9.680825
2022-09-12T08:33:10.482Z,9.680976
2022-09-12T08:34:10.480Z,9.681006
2022-09-12T08:35:10.490Z,9.681594
2022-09-12T08:36:10.489Z,9.681126
2022-09-12T08:37:10.456Z,9.681671
2022-09-12T08:38:10.456Z,9.681827
2022-09-12T08:39:10.434Z,9.681268
2022-09-12T08:40:10.509Z,9.681291
2022-09-12T08:41:10.422Z,9.681251
2022-09-12T08:43:10.422Z,9.681094
2022-09-12T08:44:10.400Z,9.681418
2022-09-12T08:45:10.395Z,9.681116
2022-09-12T08:46:10.451Z,9.681142
2022-09-12T08:47:10.397Z,9.681499
2022-09-12T08:48:10.372Z,9.681120
2022-09-12T08:49:10.358Z,9.680278
2022-09-12T08:50:10.371Z,9.680441
2022-09-12T08:51:10.345Z,9.681038
2022-09-12T08:52:10.363Z,9.680908
2022-09-12T08:53:10.336Z,9.681027
2022-09-12T08:54:10.325Z,9.681125
2022-09-12T08:55:10.317Z,9.680853
2022-09-12T08:56:10.303Z,9.681441
2022-09-12T08:57:10.344Z,9.681443
2022-09-12T08:58:10.284Z,9.681148
2022-09-12T08:59:10.274Z,9.681717
2022-09-12T09:00:10.276Z,9.681310
2022-09-12T09:01:10.345Z,9.680699
2022-09-12T09:02:10.315Z,9.681217
2022-09-12T09:03:10.269Z,9.681710
2022-09-12T09:04:10.245Z,9.681199
2022-09-12T09:05:10.243Z,9.680984
2022-09-12T09:06:10.224Z,9.680718
2022-09-12T09:07:10.215Z,9.680489
2022-09-12T09:08:10.217Z,9.681041
2022-09-12T09:09:10.211Z,9.681896
2022-09-12T09:10:10.194Z,9.681318
2022-09-12T09:11:10.197Z,9.681228
2022-09-12T09:12:10.172Z,9.681083
2022-09-12T09:13:10.164Z,9.680418
2022-09-12T09:14:10.183Z,9.681264
2022-09-12T09:15:10.184Z,9.681795
2022-09-12T09:16:10.197Z,9.681009
2022-09-12T09:17:10.129Z,9.680953
2022-09-12T09:18:10.120Z,9.681074
2022-09-12T09:19:10.109Z,9.681205
2022-09-12T09:20:10.107Z,9.681141
2022-09-12T09:21:10.116Z,9.681623
2022-09-12T09:22:10.081Z,9.681078
2022-09-12T09:23:10.070Z,9.681275
2022-09-12T09:24:10.082Z,9.681241
2022-09-12T09:25:10.059Z,9.681241
2022-09-12T09:26:10.061Z,9.681241
2022-09-12T09:27:29.940Z,9.681241
2022-09-12T09:28:11.052Z,9.681241
2022-09-12T09:29:10.035Z,9.681241
2022-09-12T09:30:10.025Z,9.681160
2022-09-12T09:31:17.121Z,9.680823
2022-09-12T09:32:10.005Z,9.680902
2022-09-12T09:33:10.009Z,9.681344
2022-09-12T09:34:09.986Z,9.681757
2022-09-12T09:35:09.976Z,9.681350
2022-09-12T09:36:09.971Z,9.682577
2022-09-12T09:37:09.963Z,9.682195
2022-09-12T09:38:09.955Z,9.681349
2022-09-12T09:39:09.970Z,9.681153
2022-09-12T09:40:09.972Z,9.681120
2022-09-12T09:41:09.927Z,9.681148
2022-09-12T09:42:09.921Z,9.680940
2022-09-12T09:43:09.925Z,9.681127
2022-09-12T09:44:09.912Z,9.681045
2022-09-12T09:45:09.900Z,9.681006
2022-09-12T09:46:09.963Z,9.681063
2022-09-12T09:47:09.895Z,9.681021
2022-09-12T09:48:09.869Z,9.681044
2022-09-12T09:49:09.885Z,9.681237
2022-09-12T09:50:09.859Z,9.681254
2022-09-12T09:51:09.860Z,9.681303
2022-09-12T09:52:09.871Z,9.681352
2022-09-12T09:53:09.826Z,9.681256
2022-09-12T09:54:09.835Z,9.681402
2022-09-12T09:55:09.805Z,9.681210
2022-09-12T09:56:09.823Z,9.681121
2022-09-12T09:57:09.784Z,9.681125
2022-09-12T09:58:09.797Z,9.681362
2022-09-12T09:59:09.822Z,9.681327
2022-09-12T10:00:09.785Z,9.681064
2022-09-12T10:01:09.822Z,9.681076
2022-09-12T10:02:09.818Z,9.681088
2022-09-12T10:03:13.394Z,9.681269
2022-09-12T10:04:09.744Z,9.681185
2022-09-12T10:05:09.762Z,9.681148
2022-09-12T10:06:09.751Z,9.681160
2022-09-12T10:07:09.722Z,9.681190
2022-09-12T10:08:09.714Z,9.681166
2022-09-12T10:09:09.707Z,9.681054
2022-09-12T10:10:09.718Z,9.680975
2022-09-12T10:11:09.683Z,9.681284
2022-09-12T10:12:09.689Z,9.681158
2022-09-12T10:13:09.676Z,9.681189
2022-09-12T10:14:09.677Z,9.681149
2022-09-12T10:15:09.659Z,9.681194
2022-09-12T10:16:09.802Z,9.681283
2022-09-12T10:17:09.646Z,9.681177
2022-09-12T10:18:09.647Z,9.681252
2022-09-12T10:19:09.632Z,9.681355
2022-09-12T10:20:20.935Z,9.681189
2022-09-12T10:21:10.636Z,9.681217
2022-09-12T10:22:09.633Z,9.681328
2022-09-12T10:23:09.612Z,9.680860
2022-09-12T10:24:09.604Z,9.680959
2022-09-12T10:25:09.592Z,9.681021
2022-09-12T10:26:09.592Z,9.681141
2022-09-12T10:27:09.608Z,9.681195
2022-09-12T10:28:09.569Z,9.681203
2022-09-12T10:29:09.561Z,9.681153
2022-09-12T10:30:09.554Z,9.681171
2022-09-12T10:31:09.572Z,9.681222
2022-09-12T10:32:09.535Z,9.681260
2022-09-12T10:33:09.546Z,9.681318
2022-09-12T10:34:09.526Z,9.681141
2022-09-12T10:35:09.524Z,9.681005
2022-09-12T10:36:09.511Z,9.680987
2022-09-12T10:37:09.500Z,9.681087
2022-09-12T10:38:09.499Z,9.681109
2022-09-12T10:39:09.505Z,9.681157
2022-09-12T10:40:09.577Z,9.681081
2022-09-12T10:41:09.471Z,9.681195
2022-09-12T10:42:09.457Z,9.681385
2022-09-12T10:43:09.479Z,9.681967
2022-09-12T10:44:09.475Z,9.681170
2022-09-12T10:45:09.439Z,9.680584
2022-09-12T10:46:09.487Z,9.680748
2022-09-12T10:47:09.439Z,9.680965
2022-09-12T10:48:09.418Z,9.681136
2022-09-12T10:49:09.414Z,9.681089
2022-09-12T10:50:09.445Z,9.680741
2022-09-12T10:51:09.407Z,9.680709
2022-09-12T10:52:09.424Z,9.680825
2022-09-12T10:53:09.387Z,9.681226
2022-09-12T10:54:09.382Z,9.680966
2022-09-12T10:55:09.391Z,9.681563
2022-09-12T10:56:09.361Z,9.681267
2022-09-12T10:57:09.357Z,9.681300
2022-09-12T10:58:09.348Z,9.681345
2022-09-12T10:59:09.337Z,9.681235
2022-09-12T11:00:09.354Z,9.681160
2022-09-12T11:01:09.393Z,9.681174
2022-09-12T11:02:09.394Z,9.681157
2022-09-12T11:03:09.309Z,9.681289
2022-09-12T11:04:09.304Z,9.681418
2022-09-12T11:05:09.296Z,9.681180
2022-09-12T11:06:09.303Z,9.681144
2022-09-12T11:07:09.287Z,9.680873
2022-09-12T11:08:09.278Z,9.680799
2022-09-12T11:09:09.274Z,9.681324
2022-09-12T11:10:09.262Z,9.681258
2022-09-12T11:11:09.270Z,9.681145
2022-09-12T11:12:09.254Z,9.680736
2022-09-12T11:13:09.232Z,9.680859
2022-09-12T11:14:09.227Z,9.681107
2022-09-12T11:15:09.235Z,9.681406
2022-09-12T11:16:09.275Z,9.681321
2022-09-12T11:17:13.271Z,9.681062
2022-09-12T11:18:09.207Z,9.681081
2022-09-12T11:19:09.213Z,9.681165
2022-09-12T11:20:09.202Z,9.681610
2022-09-12T11:21:09.206Z,9.681210
2022-09-12T11:22:09.197Z,9.681206
2022-09-12T11:23:09.175Z,9.681260
2022-09-12T11:24:09.178Z,9.681514
2022-09-12T11:25:09.152Z,9.681195
2022-09-12T11:26:09.155Z,9.680953
2022-09-12T11:27:09.174Z,9.680950
2022-09-12T11:28:09.159Z,9.680642
2022-09-12T11:29:09.129Z,9.681051
2022-09-12T11:30:09.143Z,9.681401
2022-09-12T11:31:09.148Z,9.681171
2022-09-12T11:32:09.108Z,9.680963
2022-09-12T11:33:09.099Z,9.680871
2022-09-12T11:34:09.121Z,9.680476
2022-09-12T11:35:09.496Z,9.680752
2022-09-12T11:36:09.074Z,9.680823
2022-09-12T11:37:11.013Z,9.681040
2022-09-12T11:38:09.059Z,9.681045
2022-09-12T11:39:09.051Z,9.681262
2022-09-12T11:40:09.100Z,9.681313
2022-09-12T11:41:09.044Z,9.681031
2022-09-12T11:42:09.028Z,9.681134
2022-09-12T11:43:09.031Z,9.681176
2022-09-12T11:44:09.026Z,9.681388
2022-09-12T11:45:09.026Z,9.681541